Tsimlyansk, Russia
Current Conditions -  °F | °C
As of 3:30 PM on Thursday 30 Oct 2014 (Local Time) from URRR Reporting Station
Few Clouds Few Clouds  
Wind Chill: 55°   Ceiling: Unl
Heat Index: 55°   Visibility: 6mi
Dew Point: 39°   Wind: 16mph
Humidity: 54%   Direction: 90°E
Pressure: 30.15"   Gusts: 27mph
Location:  47.65°N, 42.1°E
Report Text: URRR 301230Z 09007G12MPS 9999 FEW020 13/04 Q1021 04CLRD70NOSIG
Loading
Personal Weather Stations






























Interactive Weather Map
Tropical Storm Tracking
New forecast layout! Learn more

10-Day Weather Forecast

Advertisements
Track Severe Weather on mobile